createdAt,value
2022-08-10T00:00:51.710Z,44.81833
2022-08-10T00:05:53.503Z,45.31579
2022-08-10T00:10:55.134Z,44.98361
2022-08-10T00:15:56.910Z,44.65359
2022-08-10T00:20:58.388Z,44.81833
2022-08-10T00:26:00.049Z,44.98361
2022-08-10T00:31:02.127Z,45.98675
2022-08-10T00:36:03.583Z,45.81818
2022-08-10T00:41:05.001Z,45.31579
2022-08-10T00:46:06.623Z,45.65017
2022-08-10T00:51:08.090Z,46.32558
2022-08-10T00:57:17.110Z,46.83806
2022-08-10T01:02:20.294Z,47.3557
2022-08-10T01:07:22.118Z,49.84192
2022-08-10T01:12:39.595Z,50.94444
2022-08-10T01:17:50.678Z,51.31707
2022-08-10T01:22:52.902Z,51.50436
2022-08-10T01:27:54.484Z,51.50436
2022-08-10T01:32:56.142Z,52.64198
2022-08-10T01:37:57.833Z,57.23529
2022-08-10T01:42:59.812Z,58.71136
2022-08-10T01:48:16.516Z,63.37984
2022-08-10T01:53:18.529Z,69.71429
2022-08-10T01:58:20.207Z,83.36652
2022-08-10T02:03:22.222Z,88.94118
2022-08-10T02:08:23.713Z,95.35135
2022-08-10T02:13:25.356Z,95.72414
2022-08-10T02:18:26.967Z,91.72182
2022-08-10T02:23:28.720Z,89.28302
2022-08-10T02:28:31.288Z,82.42697
2022-08-10T02:33:37.333Z,80.28319
2022-08-10T02:38:59.457Z,79.68282
2022-08-10T02:45:22.577Z,77.33333
2022-08-10T02:50:30.401Z,74.23256
2022-08-10T02:55:32.688Z,71.01031
2022-08-10T03:00:34.269Z,63.84436
2022-08-10T03:05:35.951Z,57.44383
2022-08-10T03:10:39.661Z,51.31707
2022-08-10T03:15:41.290Z,48.94037
2022-08-10T03:20:42.873Z,47.52941
2022-08-10T03:25:53.197Z,47.52941
2022-08-10T03:30:56.072Z,47.18258
2022-08-10T03:36:42.184Z,47.3557
2022-08-10T03:41:47.780Z,48.23012
2022-08-10T03:46:55.238Z,49.11945
2022-08-10T03:51:56.796Z,49.47945
2022-08-10T03:56:58.407Z,50.94444
2022-08-10T04:02:45.531Z,51.13043
2022-08-10T04:07:49.844Z,52.26011
2022-08-10T04:12:51.511Z,53.41385
2022-08-10T04:18:02.575Z,55.79673
2022-08-10T04:23:07.699Z,57.44383
2022-08-10T04:28:09.334Z,58.92537
2022-08-10T04:33:10.772Z,60.66667
2022-08-10T04:38:12.619Z,61.78203
2022-08-10T04:43:14.083Z,59.57223
2022-08-10T04:48:41.576Z,59.78947
2022-08-10T04:54:03.846Z,58.28571
2022-08-10T04:59:08.518Z,62.00766
2022-08-10T05:04:36.588Z,64.07797
2022-08-10T05:10:02.067Z,63.61165
2022-08-10T05:15:07.473Z,62.91892
2022-08-10T05:20:09.020Z,58.71136
2022-08-10T05:25:10.550Z,55.79673
2022-08-10T05:30:12.082Z,51.69231
2022-08-10T05:35:13.586Z,54.99099
2022-08-10T05:40:15.298Z,61.11027
2022-08-10T05:45:16.948Z,61.33333
2022-08-10T05:50:18.447Z,58.49814
2022-08-10T05:55:20.158Z,56.61426
2022-08-10T06:00:36.825Z,61.55725
2022-08-10T06:05:40.488Z,72.06653
2022-08-10T06:12:16.429Z,71.27273
2022-08-10T06:17:28.492Z,76.18884
2022-08-10T06:22:30.033Z,83.05192
2022-08-10T06:27:34.613Z,82.73874
2022-08-10T06:32:37.053Z,94.61125
2022-08-10T06:37:38.646Z,101.14286
2022-08-10T06:42:40.421Z,103.17313
2022-08-10T06:47:41.839Z,119.49858
2022-08-10T06:52:43.496Z,124.64516
2022-08-10T06:57:45.258Z,132.95706
2022-08-10T07:03:01.822Z,154.23891
2022-08-10T07:08:08.998Z,166.38267
2022-08-10T07:13:10.702Z,198.54545
2022-08-10T07:18:12.154Z,196.45902
2022-08-10T07:23:58.479Z,196.45902
2022-08-10T07:29:02.359Z,230.51163
2022-08-10T07:34:03.802Z,302.13953
2022-08-10T07:39:05.553Z,475.03448
2022-08-10T07:44:07.424Z,585.66667
2022-08-10T07:49:15.296Z,536.30769
2022-08-10T07:54:21.175Z,530.66667
2022-08-10T07:59:22.617Z,530.66667
2022-08-10T08:04:24.081Z,494
2022-08-10T08:09:25.565Z,644
2022-08-10T08:14:27.218Z,733.74359
2022-08-10T08:19:37.145Z,811.60563
2022-08-10T08:24:43.025Z,1006.06897
2022-08-10T08:29:44.792Z,937.54839
2022-08-10T08:34:46.228Z,970.66667
2022-08-10T08:39:47.920Z,970.66667
2022-08-10T08:44:50.503Z,1201.14286
2022-08-10T08:50:08.087Z,921.77778
2022-08-10T08:55:52.405Z,1344
2022-08-10T09:01:06.930Z,1227.33333
2022-08-10T09:06:08.761Z,1410.66667
2022-08-10T09:11:10.296Z,1176
2022-08-10T09:16:12.724Z,1608.86486
2022-08-10T09:21:14.270Z,1931.09677
2022-08-10T09:26:15.715Z,1997.33333
2022-08-10T09:31:22.385Z,2313.23077
2022-08-10T09:36:32.240Z,3024
2022-08-10T09:41:35.330Z,2622.26087
2022-08-10T09:46:37.969Z,2744
2022-08-10T09:51:45.887Z,2622.26087
2022-08-10T09:56:48.079Z,3366.22222
2022-08-10T10:02:02.610Z,2744
2022-08-10T10:07:05.553Z,3024
2022-08-10T10:12:09.156Z,3186.10526
2022-08-10T10:17:12.239Z,3186.10526
2022-08-10T10:22:13.679Z,2744
2022-08-10T10:27:16.120Z,2877.33333
2022-08-10T10:32:18.142Z,3186.10526
2022-08-10T10:37:19.662Z,2744
2022-08-10T10:42:42.421Z,3366.22222
2022-08-10T10:47:46.757Z,3794
2022-08-10T10:52:48.431Z,3794
2022-08-10T10:57:59.318Z,4344
2022-08-10T11:03:02.536Z,3794
2022-08-10T11:08:04.162Z,4344
2022-08-10T11:14:26.038Z,5077.33333
2022-08-10T11:20:02.123Z,4682.46154
2022-08-10T11:25:05.424Z,4682.46154
2022-08-10T11:30:07.107Z,6104
2022-08-10T11:35:11.605Z,4344
2022-08-10T11:40:14.283Z,6104
2022-08-10T11:45:15.923Z,6104
2022-08-10T11:50:17.585Z,4344
2022-08-10T11:55:19.162Z,3567.52941
2022-08-10T12:00:20.730Z,5077.33333
2022-08-10T12:05:23.869Z,5544
2022-08-10T12:10:53.978Z,5077.33333
2022-08-10T12:15:55.436Z,5077.33333
2022-08-10T12:20:58.036Z,7644
2022-08-10T12:25:59.615Z,6104
2022-08-10T12:31:01.207Z,7644
2022-08-10T12:36:17.919Z,6104
2022-08-10T12:41:43.658Z,5544
2022-08-10T12:46:47.053Z,6104
2022-08-10T12:51:49.528Z,6788.44444
2022-08-10T12:56:51.358Z,8744
2022-08-10T13:02:06.793Z,7644
2022-08-10T13:08:24.516Z,8744
2022-08-10T13:13:28.927Z,8744
2022-08-10T13:18:30.468Z,10210.66667
2022-08-10T13:23:32.322Z,10210.66667
2022-08-10T13:28:36.485Z,12264
2022-08-10T13:34:40.943Z,15344
2022-08-10T13:39:57.630Z,15344
2022-08-10T13:45:01.591Z,10210.66667
2022-08-10T13:50:03.267Z,12264
2022-08-10T13:55:07.034Z,12264
2022-08-10T14:00:34.133Z,15344
2022-08-10T14:05:38.940Z,15344
2022-08-10T14:11:09.252Z,15344
2022-08-10T14:16:12.878Z,20477.33333
2022-08-10T14:21:14.331Z,15344
2022-08-10T14:26:16.195Z,20477.33333
2022-08-10T14:31:21.597Z,15344
2022-08-10T14:36:24.494Z,15344
2022-08-10T14:42:00.829Z,12264
2022-08-10T14:47:53.462Z,15344
2022-08-10T14:53:01.299Z,15344
2022-08-10T14:58:19.817Z,15344
2022-08-10T15:04:01.028Z,6788.44444
2022-08-10T15:09:04.680Z,6788.44444
2022-08-10T15:14:41.285Z,1869
2022-08-10T15:20:03.200Z,2408
2022-08-10T15:25:19.337Z,1484
2022-08-10T15:30:29.767Z,1283.13043
2022-08-10T15:35:32.045Z,1869
2022-08-10T15:40:49.689Z,1227.33333
2022-08-10T15:45:53.597Z,351.94702
2022-08-10T15:50:55.149Z,374.76923
2022-08-10T15:55:56.623Z,457.33333
2022-08-10T16:00:59.551Z,374.76923
2022-08-10T16:06:03.257Z,282.46154
2022-08-10T16:11:05.215Z,248.9505
2022-08-10T16:16:06.824Z,217.77778
2022-08-10T16:21:08.370Z,193.39271
2022-08-10T16:26:15.074Z,167.18841
2022-08-10T16:31:19.398Z,153.52381
2022-08-10T16:36:20.982Z,209.51724
2022-08-10T16:42:03.177Z,187.47826
2022-08-10T16:47:07.250Z,169.64103
2022-08-10T16:52:08.813Z,178.22053
2022-08-10T16:57:10.399Z,168
2022-08-10T17:02:12.185Z,190.4
2022-08-10T17:07:13.690Z,168.81752
2022-08-10T17:12:15.352Z,198.54545
2022-08-10T17:17:16.875Z,336.35669
2022-08-10T17:22:18.432Z,211.82609
2022-08-10T17:28:04.629Z,176.45283
2022-08-10T17:33:11.327Z,192.3871
2022-08-10T17:38:12.889Z,233.20188
2022-08-10T17:43:14.519Z,237.33333
2022-08-10T17:49:00.199Z,195.42857
2022-08-10T17:54:01.796Z,179.1145
2022-08-10T17:59:04.597Z,271.65957
2022-08-10T18:04:09.212Z,219
2022-08-10T18:09:10.732Z,244.4878
2022-08-10T18:14:12.205Z,219
2022-08-10T18:19:13.776Z,172.14815
2022-08-10T18:24:16.578Z,189.41833
2022-08-10T18:29:18.402Z,201.74059
2022-08-10T18:34:20.777Z,181.83784
2022-08-10T18:39:22.335Z,233.20188
2022-08-10T18:44:23.878Z,192.3871
2022-08-10T18:49:25.456Z,170.47059
2022-08-10T18:54:38.926Z,188.44444
2022-08-10T19:00:04.002Z,161.66784
2022-08-10T19:05:31.415Z,147.30033
2022-08-10T19:10:33.527Z,127.8806
2022-08-10T19:15:35.951Z,133.53846
2022-08-10T19:20:37.531Z,140.80511
2022-08-10T19:26:41.038Z,146.63158
2022-08-10T19:31:45.091Z,147.97351
2022-08-10T19:36:46.737Z,175.57895
2022-08-10T19:41:48.498Z,170.47059
2022-08-10T19:46:56.422Z,153.52381
2022-08-10T19:51:59.030Z,216.56637
2022-08-10T19:57:07.659Z,183.68872
2022-08-10T20:02:11.110Z,198.54545
2022-08-10T20:07:15.252Z,141.4359
2022-08-10T20:12:19.298Z,104.83551
2022-08-10T20:17:22.952Z,108.26667
2022-08-10T20:22:28.710Z,123.59184
2022-08-10T20:27:58.801Z,118.0113
2022-08-10T20:33:02.742Z,113.23077
2022-08-10T20:38:05.144Z,120
2022-08-10T20:43:06.920Z,115.11111
2022-08-10T20:48:08.405Z,113.23077
2022-08-10T20:53:09.986Z,118.0113
2022-08-10T20:58:11.813Z,113.23077
2022-08-10T21:03:15.957Z,131.23404
2022-08-10T21:08:23.255Z,152.10811
2022-08-10T21:13:24.729Z,172.14815
2022-08-10T21:18:26.158Z,197.49794
2022-08-10T21:23:30.653Z,186.51969
2022-08-10T21:28:32.630Z,196.45902
2022-08-10T21:33:34.189Z,195.42857
2022-08-10T21:38:35.878Z,190.4
2022-08-10T21:43:44.595Z,188.44444
2022-08-10T21:48:57.149Z,181.83784
2022-08-10T22:36:28.478Z,217.77778
2022-08-10T22:41:30.010Z,245.96078
2022-08-10T22:46:31.578Z,230.51163
2022-08-10T22:51:33.319Z,245.96078
2022-08-10T22:56:34.799Z,231.85047
2022-08-10T23:01:36.315Z,231.85047
2022-08-10T23:06:38.089Z,224
2022-08-10T23:11:39.560Z,255.11111
2022-08-10T23:16:41.000Z,214.17544
2022-08-10T23:22:02.894Z,186.51969
2022-08-10T23:27:10.291Z,167.18841
2022-08-10T23:32:14.524Z,143.35275
2022-08-10T23:37:16.323Z,152.81356
2022-08-10T23:42:17.948Z,145.96721
2022-08-10T23:47:19.655Z,144.65147
2022-08-10T23:52:21.455Z,150.02007
2022-08-10T23:57:22.981Z,156.41379
